createdAt,value
2018-08-06T00:00:23.130Z,65.20
2018-08-06T00:02:58.791Z,64.00
2018-08-06T00:05:33.689Z,63.10
2018-08-06T00:08:10.061Z,62.40
2018-08-06T00:10:46.238Z,62.10
2018-08-06T00:13:20.630Z,61.90
2018-08-06T00:15:55.095Z,62.00
2018-08-06T00:18:29.517Z,62.10
2018-08-06T00:21:06.272Z,62.10
2018-08-06T00:23:40.654Z,62.20
2018-08-06T00:26:16.554Z,62.10
2018-08-06T00:28:53.323Z,62.10
2018-08-06T00:31:27.719Z,62.30
2018-08-06T00:34:03.695Z,62.60
2018-08-06T00:36:38.057Z,62.80
2018-08-06T00:39:12.764Z,63.00
2018-08-06T00:41:49.207Z,63.00
2018-08-06T00:44:24.019Z,62.70
2018-08-06T00:46:59.991Z,62.90
2018-08-06T00:49:34.726Z,63.10
2018-08-06T00:52:10.427Z,63.10
2018-08-06T00:57:30.472Z,63.40
2018-08-06T01:00:07.487Z,63.40
2018-08-06T01:02:43.385Z,63.60
2018-08-06T01:05:18.284Z,63.50
2018-08-06T01:07:54.589Z,63.60
2018-08-06T01:10:29.147Z,63.60
2018-08-06T01:13:03.523Z,63.60
2018-08-06T01:15:37.974Z,63.80
2018-08-06T01:18:12.435Z,64.10
2018-08-06T01:20:48.555Z,64.30
2018-08-06T01:23:23.124Z,64.60
2018-08-06T01:25:59.246Z,64.70
2018-08-06T01:28:35.070Z,64.60
2018-08-06T01:31:09.450Z,64.10
2018-08-06T01:33:45.551Z,64.60
2018-08-06T01:36:19.954Z,64.90
2018-08-06T01:38:56.074Z,65.20
2018-08-06T01:41:32.463Z,65.30
2018-08-06T01:44:06.999Z,65.20
2018-08-06T01:46:43.060Z,65.00
2018-08-06T01:49:18.880Z,65.10
2018-08-06T01:51:54.639Z,65.50
2018-08-06T01:54:30.736Z,65.50
2018-08-06T01:57:05.072Z,65.30
2018-08-06T01:59:39.462Z,65.50
2018-08-06T02:02:15.390Z,66.00
2018-08-06T02:04:49.839Z,66.30
2018-08-06T02:07:32.259Z,66.70
2018-08-06T02:10:09.027Z,66.80
2018-08-06T02:12:44.385Z,66.90
2018-08-06T02:15:18.989Z,66.60
2018-08-06T02:17:53.691Z,67.00
2018-08-06T02:20:30.057Z,67.10
2018-08-06T02:23:06.135Z,67.10
2018-08-06T02:25:42.465Z,66.80
2018-08-06T02:28:18.036Z,66.60
2018-08-06T02:30:52.587Z,66.60
2018-08-06T02:33:38.796Z,66.80
2018-08-06T02:36:13.153Z,67.10
2018-08-06T02:38:48.845Z,67.40
2018-08-06T02:41:25.089Z,67.60
2018-08-06T02:43:59.643Z,67.40
2018-08-06T02:46:34.368Z,67.20
2018-08-06T02:49:10.452Z,67.50
2018-08-06T02:51:46.470Z,67.70
2018-08-06T02:54:22.326Z,67.50
2018-08-06T02:59:31.435Z,67.60
2018-08-06T03:02:06.204Z,67.90
2018-08-06T03:04:40.540Z,68.00
2018-08-06T03:07:15.252Z,67.80
2018-08-06T03:09:51.328Z,67.70
2018-08-06T03:12:26.368Z,68.00
2018-08-06T03:15:01.259Z,67.90
2018-08-06T03:17:36.055Z,68.10
2018-08-06T03:22:53.683Z,68.40
2018-08-06T03:25:32.865Z,68.80
2018-08-06T03:28:08.644Z,69.30
2018-08-06T03:30:43.011Z,70.00
2018-08-06T03:33:17.699Z,70.00
2018-08-06T03:35:53.870Z,70.40
2018-08-06T03:38:30.696Z,70.80
2018-08-06T03:41:05.103Z,71.20
2018-08-06T03:43:39.639Z,71.10
2018-08-06T03:46:14.095Z,71.40
2018-08-06T03:48:54.256Z,71.40
2018-08-06T03:51:30.510Z,71.40
2018-08-06T03:54:06.515Z,71.60
2018-08-06T03:56:41.083Z,71.70
2018-08-06T03:59:15.560Z,71.90
2018-08-06T04:01:51.547Z,72.00
2018-08-06T04:04:27.366Z,72.00
2018-08-06T04:07:03.507Z,72.50
2018-08-06T04:09:39.565Z,72.60
2018-08-06T04:12:14.099Z,73.00
2018-08-06T04:14:48.713Z,73.20
2018-08-06T04:17:24.966Z,73.40
2018-08-06T04:19:59.379Z,73.60
2018-08-06T04:22:34.911Z,73.50
2018-08-06T04:25:09.296Z,73.60
2018-08-06T04:27:45.215Z,73.90
2018-08-06T04:30:19.704Z,74.10
2018-08-06T04:32:54.321Z,73.90
2018-08-06T04:35:30.122Z,74.10
2018-08-06T04:38:05.995Z,74.60
2018-08-06T04:40:40.793Z,74.60
2018-08-06T04:43:15.160Z,74.70
2018-08-06T04:45:49.472Z,74.70
2018-08-06T04:48:25.464Z,74.70
2018-08-06T04:51:01.756Z,74.60
2018-08-06T04:56:18.157Z,74.40
2018-08-06T04:58:52.859Z,73.50
2018-08-06T05:01:28.668Z,73.20
2018-08-06T05:04:03.191Z,73.10
2018-08-06T05:06:38.027Z,72.90
2018-08-06T05:09:19.604Z,72.60
2018-08-06T05:11:54.024Z,72.10
2018-08-06T05:14:30.210Z,71.70
2018-08-06T05:17:05.156Z,69.80
2018-08-06T05:19:39.587Z,68.50
2018-08-06T05:22:15.291Z,68.40
2018-08-06T05:24:50.014Z,67.60
2018-08-06T05:27:26.423Z,67.00
2018-08-06T05:30:00.871Z,66.80
2018-08-06T05:32:35.648Z,66.50
2018-08-06T05:35:11.923Z,66.10
2018-08-06T05:37:47.979Z,66.40
2018-08-06T05:40:22.523Z,66.10
2018-08-06T05:45:32.843Z,65.20
2018-08-06T05:48:07.707Z,64.90
2018-08-06T05:50:44.005Z,64.20
2018-08-06T05:53:18.799Z,64.00
2018-08-06T05:55:54.663Z,64.20
2018-08-06T05:58:29.151Z,64.50
2018-08-06T06:01:09.231Z,64.40
2018-08-06T06:03:43.690Z,64.20
2018-08-06T06:06:18.136Z,63.90
2018-08-06T06:08:53.965Z,63.70
2018-08-06T06:11:28.458Z,63.60
2018-08-06T06:14:04.913Z,63.10
2018-08-06T06:16:39.181Z,63.20
2018-08-06T06:19:13.608Z,63.40
2018-08-06T06:21:49.300Z,63.30
2018-08-06T06:24:24.030Z,63.00
2018-08-06T06:26:59.563Z,63.00
2018-08-06T06:29:35.511Z,63.10
2018-08-06T06:32:10.259Z,63.90
2018-08-06T06:34:45.955Z,63.70
2018-08-06T06:37:21.362Z,64.40
2018-08-06T06:43:54.488Z,63.50
2018-08-06T06:46:29.038Z,62.00
2018-08-06T06:49:05.323Z,61.10
2018-08-06T06:51:41.334Z,60.30
2018-08-06T06:54:17.221Z,59.40
2018-08-06T06:56:51.603Z,59.10
2018-08-06T06:59:27.287Z,59.30
2018-08-06T07:02:03.557Z,60.00
2018-08-06T07:04:37.999Z,60.00
2018-08-06T07:07:12.999Z,59.50
2018-08-06T07:09:49.063Z,59.80
2018-08-06T07:12:23.585Z,60.90
2018-08-06T07:14:58.009Z,59.90
2018-08-06T07:17:33.874Z,58.70
2018-08-06T07:22:43.875Z,59.00
2018-08-06T07:25:18.567Z,58.40
2018-08-06T07:27:54.223Z,57.40
2018-08-06T07:30:29.025Z,56.60
2018-08-06T07:33:03.379Z,55.80
2018-08-06T07:35:40.048Z,55.60
2018-08-06T07:38:15.883Z,55.10
2018-08-06T07:40:50.579Z,55.00
2018-08-06T07:43:25.031Z,53.70
2018-08-06T07:45:59.642Z,53.70
2018-08-06T07:48:51.182Z,53.40
2018-08-06T07:51:27.198Z,52.60
2018-08-06T07:54:03.419Z,51.50
2018-08-06T07:56:37.863Z,50.70
2018-08-06T07:59:12.260Z,50.10
2018-08-06T08:01:48.406Z,51.40
2018-08-06T08:04:24.479Z,51.30
2018-08-06T08:07:00.620Z,51.00
2018-08-06T08:09:36.388Z,50.50
2018-08-06T08:12:11.926Z,50.80
2018-08-06T08:14:46.600Z,50.60
2018-08-06T08:17:21.115Z,50.40
2018-08-06T08:19:55.969Z,50.70
2018-08-06T08:22:32.076Z,50.60
2018-08-06T08:40:40.116Z,48.40
2018-08-06T08:43:14.540Z,47.50
2018-08-06T08:45:49.128Z,48.40
2018-08-06T08:48:24.995Z,48.40
2018-08-06T08:51:01.187Z,47.60
2018-08-06T08:58:47.826Z,48.20
2018-08-06T09:34:59.322Z,47.40
2018-08-06T09:45:22.379Z,45.20
2018-08-06T09:48:12.685Z,44.10
2018-08-06T09:50:56.070Z,44.80
2018-08-06T09:53:33.452Z,46.40
2018-08-06T09:56:08.055Z,46.90
2018-08-06T09:58:43.814Z,47.30
2018-08-06T10:01:25.428Z,46.90
2018-08-06T10:04:01.305Z,46.70
2018-08-06T10:06:41.405Z,46.80
2018-08-06T10:09:17.154Z,46.60
2018-08-06T10:11:51.627Z,46.30
2018-08-06T10:14:27.088Z,46.30
2018-08-06T10:22:12.060Z,45.80
2018-08-06T10:24:48.306Z,45.40
2018-08-06T10:37:45.379Z,44.90
2018-08-06T10:40:22.839Z,44.60
2018-08-06T10:42:57.947Z,45.40
2018-08-06T10:45:32.411Z,45.90
2018-08-06T10:48:07.734Z,45.90
2018-08-06T10:50:45.232Z,45.30
2018-08-06T11:19:27.979Z,43.70
2018-08-06T12:11:13.632Z,39.60
2018-08-06T12:16:32.032Z,39.90
2018-08-06T12:19:10.132Z,41.30
2018-08-06T12:21:46.359Z,40.40
2018-08-06T12:24:21.014Z,40.10
2018-08-06T12:26:56.776Z,38.30
2018-08-06T12:29:31.215Z,38.90
2018-08-06T12:32:05.788Z,38.30
2018-08-06T12:49:40.543Z,36.50
2018-08-06T13:10:38.108Z,37.40
2018-08-06T13:13:14.489Z,36.60
2018-08-06T13:15:53.374Z,36.10
2018-08-06T13:18:30.346Z,35.50
2018-08-06T13:21:24.877Z,35.50
2018-08-06T13:24:02.349Z,34.80
2018-08-06T13:26:39.376Z,34.00
2018-08-06T13:29:18.417Z,35.40
2018-08-06T13:31:55.370Z,35.10
2018-08-06T13:34:37.531Z,35.10
2018-08-06T13:37:14.237Z,35.30
2018-08-06T13:39:49.259Z,35.40
2018-08-06T16:37:55.027Z,35.30
2018-08-06T19:22:09.522Z,40.70
2018-08-06T19:24:49.983Z,40.00
